createdAt,value
2023-09-22T03:46:47.287Z,100.00
2023-09-22T03:49:52.241Z,100.00
2023-09-22T03:52:55.352Z,100.00
2023-09-22T03:56:01.808Z,100.00
2023-09-22T03:59:06.407Z,100.00
2023-09-22T04:02:09.693Z,100.00
2023-09-22T04:05:19.034Z,100.00
2023-09-22T04:08:27.234Z,100.00
2023-09-22T04:11:30.385Z,100.00
2023-09-22T04:14:33.627Z,100.00
2023-09-22T04:17:38.384Z,100.00
2023-09-22T04:20:45.311Z,100.00
2023-09-22T04:24:00.275Z,100.00
2023-09-22T04:27:08.012Z,100.00
2023-09-22T04:30:14.394Z,100.00
2023-09-22T04:33:18.714Z,100.00
2023-09-22T04:36:25.066Z,100.00
2023-09-22T04:39:33.165Z,100.00
2023-09-22T04:42:36.479Z,100.00
2023-09-22T04:45:41.996Z,100.00
2023-09-22T04:48:48.037Z,100.00
2023-09-22T04:51:50.972Z,100.00
2023-09-22T04:54:54.905Z,100.00
2023-09-22T04:57:58.088Z,100.00
2023-09-22T05:01:02.956Z,100.00
2023-09-22T05:04:07.894Z,100.00
2023-09-22T05:07:14.438Z,100.00
2023-09-22T05:10:17.306Z,100.00
2023-09-22T05:13:20.314Z,100.00
2023-09-22T05:16:23.265Z,100.00
2023-09-22T05:19:26.526Z,100.00
2023-09-22T05:22:29.337Z,100.00
2023-09-22T05:25:32.394Z,100.00
2023-09-22T05:28:35.631Z,100.00
2023-09-22T05:31:38.466Z,100.00
2023-09-22T05:34:43.126Z,100.00
2023-09-22T05:37:46.418Z,100.00
2023-09-22T05:40:50.152Z,100.00
2023-09-22T05:43:57.517Z,100.00
2023-09-22T05:47:00.347Z,100.00
2023-09-22T05:50:03.785Z,100.00
2023-09-22T05:53:06.598Z,100.00
2023-09-22T05:56:13.394Z,100.00
2023-09-22T05:59:17.596Z,100.00
2023-09-22T06:02:21.041Z,100.00
2023-09-22T06:05:24.194Z,100.00
2023-09-22T06:08:27.247Z,100.00
2023-09-22T06:11:30.229Z,100.00
2023-09-22T06:14:33.147Z,100.00
2023-09-22T06:17:37.490Z,100.00
2023-09-22T06:20:40.432Z,100.00
2023-09-22T06:23:43.618Z,100.00
2023-09-22T06:26:46.394Z,100.00
2023-09-22T06:29:49.230Z,100.00
2023-09-22T06:32:52.380Z,100.00
2023-09-22T06:36:06.217Z,100.00
2023-09-22T06:39:09.814Z,100.00
2023-09-22T06:42:13.160Z,100.00
2023-09-22T06:45:19.655Z,100.00
2023-09-22T06:48:31.110Z,100.00
2023-09-22T06:51:34.966Z,100.00
2023-09-22T06:54:41.582Z,100.00
2023-09-22T06:57:44.950Z,100.00
2023-09-22T07:00:49.632Z,100.00
2023-09-22T07:03:52.794Z,100.00
2023-09-22T07:06:56.206Z,100.00
2023-09-22T07:09:59.489Z,100.00
2023-09-22T07:13:03.443Z,100.00
2023-09-22T07:16:06.549Z,100.00
2023-09-22T07:19:09.881Z,100.00
2023-09-22T07:22:13.394Z,100.00
2023-09-22T07:25:18.191Z,100.00
2023-09-22T07:28:21.101Z,100.00
2023-09-22T07:31:29.530Z,100.00
2023-09-22T07:34:33.101Z,100.00
2023-09-22T07:37:39.139Z,100.00
2023-09-22T07:40:42.197Z,100.00
2023-09-22T07:43:45.655Z,100.00
2023-09-22T07:46:51.858Z,100.00
2023-09-22T07:49:58.392Z,100.00
2023-09-22T07:53:02.065Z,100.00
2023-09-22T07:56:05.384Z,100.00
2023-09-22T07:59:13.700Z,100.00
2023-09-22T08:02:18.497Z,100.00
2023-09-22T08:05:24.354Z,100.00
2023-09-22T08:08:27.790Z,100.00
2023-09-22T08:11:31.992Z,100.00
2023-09-22T08:14:54.566Z,100.00
2023-09-22T08:17:59.564Z,100.00
2023-09-22T08:21:02.696Z,100.00
2023-09-22T08:24:06.474Z,99.32
2023-09-22T08:27:09.366Z,96.66
2023-09-22T08:30:13.221Z,86.90
2023-09-22T08:33:16.707Z,83.16
2023-09-22T08:36:20.396Z,79.70
2023-09-22T08:39:23.802Z,78.69
2023-09-22T08:42:29.171Z,75.50
2023-09-22T08:45:32.460Z,73.01
2023-09-22T08:48:36.073Z,73.86
2023-09-22T08:51:39.392Z,71.13
2023-09-22T08:54:44.175Z,69.10
2023-09-22T08:57:48.680Z,68.71
2023-09-22T09:00:53.090Z,69.07
2023-09-22T09:03:56.437Z,68.69
2023-09-22T09:07:00.513Z,67.37
2023-09-22T09:10:03.564Z,66.72
2023-09-22T09:13:09.187Z,64.77
2023-09-22T09:16:13.143Z,66.56
2023-09-22T09:19:16.475Z,63.30
2023-09-22T09:22:19.715Z,61.39
2023-09-22T09:25:22.998Z,61.36
2023-09-22T09:28:26.546Z,61.18
2023-09-22T09:31:49.161Z,60.29
2023-09-22T09:34:52.612Z,59.98
2023-09-22T09:38:04.575Z,57.73
2023-09-22T09:41:09.627Z,54.25
2023-09-22T09:44:13.308Z,55.02
2023-09-22T09:47:38.464Z,54.27
2023-09-22T09:50:44.282Z,53.71
2023-09-22T09:53:52.693Z,51.50
2023-09-22T09:56:56.687Z,53.59
2023-09-22T10:00:00.692Z,51.39
2023-09-22T10:03:08.158Z,51.99
2023-09-22T10:06:13.792Z,50.06
2023-09-22T10:09:17.467Z,53.15
2023-09-22T10:12:21.076Z,55.14
2023-09-22T10:15:52.399Z,54.95
2023-09-22T10:19:03.476Z,54.81
2023-09-22T10:22:13.592Z,55.07
2023-09-22T10:25:31.560Z,51.70
2023-09-22T10:28:38.523Z,49.89
2023-09-22T10:32:22.950Z,50.56
2023-09-22T10:35:41.885Z,48.14
2023-09-22T10:38:56.556Z,48.28
2023-09-22T10:42:01.007Z,46.31
2023-09-22T10:45:07.078Z,47.34
2023-09-22T10:48:12.308Z,48.45
2023-09-22T10:51:16.248Z,47.72
2023-09-22T10:54:19.961Z,47.53
2023-09-22T10:57:25.058Z,47.89
2023-09-22T11:00:28.355Z,47.56
2023-09-22T11:03:34.191Z,47.03
2023-09-22T11:06:43.838Z,46.94
2023-09-22T11:09:49.387Z,47.51
2023-09-22T11:12:53.327Z,46.78
2023-09-22T11:16:01.311Z,47.16
2023-09-22T11:19:06.361Z,45.12
2023-09-22T11:22:11.219Z,45.74
2023-09-22T11:25:14.766Z,46.58
2023-09-22T11:28:18.500Z,43.53
2023-09-22T11:31:21.365Z,44.50
2023-09-22T11:34:25.829Z,44.19
2023-09-22T11:37:32.385Z,43.77
2023-09-22T11:40:40.869Z,43.50
2023-09-22T11:43:49.608Z,42.61
2023-09-22T11:46:53.818Z,42.10
2023-09-22T11:49:57.104Z,42.74
2023-09-22T11:53:21.717Z,42.75
2023-09-22T11:56:25.091Z,43.68
2023-09-22T11:59:33.300Z,42.24
2023-09-22T12:02:36.763Z,41.59
2023-09-22T12:05:40.108Z,41.91
2023-09-22T12:08:42.887Z,43.16
2023-09-22T12:11:47.294Z,42.39
2023-09-22T12:14:50.249Z,42.26
2023-09-22T12:17:53.257Z,43.54
2023-09-22T12:20:57.368Z,42.32
2023-09-22T12:24:01.292Z,42.50
2023-09-22T12:27:04.722Z,41.92
2023-09-22T12:30:08.718Z,42.42
2023-09-22T12:33:13.040Z,42.26
2023-09-22T12:36:17.597Z,41.10
2023-09-22T12:39:20.489Z,39.06
2023-09-22T12:42:23.522Z,38.52
2023-09-22T12:45:26.839Z,37.65
2023-09-22T12:48:29.989Z,37.85
2023-09-22T12:51:32.958Z,39.41
2023-09-22T12:54:36.284Z,36.03
2023-09-22T12:57:40.534Z,37.32
2023-09-22T13:00:44.381Z,35.00
2023-09-22T13:03:47.792Z,31.38
2023-09-22T13:06:54.043Z,29.04
2023-09-22T13:09:56.915Z,26.95
2023-09-22T13:13:00.074Z,25.80
2023-09-22T13:16:03.962Z,24.13
2023-09-22T13:19:07.370Z,23.84
2023-09-22T13:22:10.669Z,23.24
2023-09-22T13:25:14.435Z,23.48
2023-09-22T13:28:18.028Z,25.55
2023-09-22T13:31:21.465Z,26.22
2023-09-22T13:34:24.760Z,26.59
2023-09-22T13:37:28.232Z,24.53
2023-09-22T13:40:32.499Z,23.83
2023-09-22T13:43:36.148Z,23.68
2023-09-22T13:46:38.887Z,23.07
2023-09-22T13:49:41.973Z,22.63
2023-09-22T13:52:45.760Z,21.31
2023-09-22T13:55:50.271Z,21.86
2023-09-22T13:58:53.213Z,22.29
2023-09-22T14:01:57.215Z,24.20
2023-09-22T14:05:00.458Z,27.83
2023-09-22T14:08:05.369Z,28.36
2023-09-22T14:11:14.330Z,26.66
2023-09-22T14:14:21.632Z,24.62
2023-09-22T14:17:25.309Z,24.21
2023-09-22T14:20:28.419Z,25.46
2023-09-22T14:23:31.576Z,26.01
2023-09-22T14:26:34.558Z,26.76
2023-09-22T14:29:38.027Z,27.67
2023-09-22T14:32:43.060Z,28.58
2023-09-22T14:35:47.619Z,27.68
2023-09-22T14:38:50.702Z,29.94
2023-09-22T14:41:53.792Z,31.98
2023-09-22T14:44:56.639Z,33.60
2023-09-22T14:47:59.785Z,34.90
2023-09-22T14:51:08.599Z,35.91
2023-09-22T14:54:12.199Z,36.22
2023-09-22T14:57:15.389Z,36.21
2023-09-22T15:00:18.702Z,36.37
2023-09-22T15:03:21.745Z,36.30
2023-09-22T15:06:24.891Z,36.66
2023-09-22T15:09:27.926Z,34.77
2023-09-22T15:12:31.463Z,34.61
2023-09-22T15:15:36.738Z,36.77
2023-09-22T15:18:41.062Z,37.67
2023-09-22T15:21:44.354Z,39.02
